Ames, Iowa
Current Conditions -  °F | °C
As of 5:53 PM on Monday 20 Oct 2014 (Local Time) from KAMW Reporting Station
Clear Clear  
Wind Chill: 65°   Ceiling: Unl
Heat Index: 65°   Visibility: 10mi
Dew Point: 40°   Wind: 10mph
Humidity: 40%   Direction: 320°NW
Pressure: 30.01"   Gusts: NA
Location:  42.03°N, 93.62°W
Report Text: KAMW 202253Z AUTO 32009KT 10SM CLR 18/04 A3001 RMK AO2 SLP159 T01830044
Loading
Personal Weather Stations






























Interactive Weather Map New forecast layout! Learn more

10-Day Weather Forecast

Advertisements
Track Severe Weather on mobile